Time;durP1;ratioP1;P1;durP2;ratioP2;P2;SDS_P1;SDS_P2;PMS_P1;PMS_P2;Temp;Humidity;BMP_temperature;BMP_pressure;BME280_temperature;BME280_humidity;BME280_pressure;Samples;Min_cycle;Max_cycle;Signal;HPM_P1;HPM_P2
2023/10/17 00:00:41;;;;;;;11.50;7.00;;;11.90;91.20;;;13.67;62.96;102132.88;3082285;46;20440;-67
2023/10/17 00:03:10;;;;;;;9.97;7.30;;;12.00;91.00;;;13.68;62.94;102124.78;3082602;46;20998;-67
2023/10/17 00:05:40;;;;;;;9.40;6.93;;;12.00;91.10;;;13.71;63.22;102128.91;3082429;46;20431;-69
2023/10/17 00:08:10;;;;;;;11.47;7.70;;;12.00;90.80;;;13.74;63.08;102133.91;3082698;46;20432;-67
2023/10/17 00:10:44;;;;;;;8.77;6.60;;;12.10;90.80;;;13.78;63.12;102129.94;3082041;46;20463;-67
2023/10/17 00:13:38;;;;;;;9.47;6.80;;;12.00;90.70;;;13.84;63.01;102131.91;3082065;46;20460;-68
2023/10/17 00:16:08;;;;;;;9.90;6.73;;;12.10;90.70;;;13.88;62.57;102135.91;3082651;46;20436;-68
2023/10/17 00:18:36;;;;;;;7.80;6.67;;;12.20;90.60;;;13.92;62.46;102131.94;3082199;46;20428;-68
2023/10/17 00:21:25;;;;;;;9.13;6.87;;;12.20;90.60;;;13.99;62.39;102138.25;3081814;46;20479;-69
2023/10/17 00:23:54;;;;;;;10.37;6.63;;;12.20;90.50;;;14.06;62.64;102134.81;3082251;46;21140;-67
2023/10/17 00:26:22;;;;;;;9.50;7.03;;;12.30;90.50;;;14.11;62.08;102134.31;3082449;46;20465;-67
2023/10/17 00:28:53;;;;;;;9.37;6.97;;;12.40;90.20;;;14.10;61.43;102120.22;3081974;46;20432;-68
2023/10/17 00:31:21;;;;;;;11.87;7.33;;;12.40;90.00;;;14.06;61.36;102129.50;3082296;46;20427;-67
2023/10/17 00:33:57;;;;;;;11.57;6.80;;;12.30;89.90;;;14.02;61.57;102122.06;3082099;46;21031;-68
2023/10/17 00:36:27;;;;;;;11.90;8.03;;;12.30;90.00;;;14.00;61.50;102118.75;3081793;46;20427;-69
2023/10/17 00:39:30;;;;;;;10.57;7.30;;;12.30;90.00;;;13.98;61.86;102120.69;3081365;46;20450;-66
2023/10/17 00:41:52;;;;;;;8.80;6.87;;;12.30;90.00;;;13.92;61.77;102121.38;3081662;46;20471;-67
2023/10/17 00:44:30;;;;;;;8.83;7.10;;;12.20;90.00;;;13.90;62.12;102118.88;3082188;46;20432;-67
2023/10/17 00:47:01;;;;;;;9.27;7.13;;;12.20;90.20;;;13.91;62.08;102127.63;3081585;46;20443;-67
2023/10/17 00:49:42;;;;;;;11.07;6.57;;;12.20;90.20;;;13.88;62.20;102125.34;3081843;46;20527;-68
2023/10/17 00:52:26;;;;;;;10.03;6.93;;;12.20;90.20;;;13.85;62.49;102120.34;3081197;46;20444;-67
2023/10/17 00:54:59;;;;;;;10.30;7.30;;;12.20;90.40;;;13.88;61.89;102114.75;3082257;46;20456;-69
2023/10/17 00:57:27;;;;;;;8.73;7.27;;;12.20;90.30;;;13.86;62.19;102111.44;3082410;46;20459;-67
2023/10/17 01:00:08;;;;;;;9.30;6.67;;;12.10;90.20;;;13.83;62.25;102106.47;3081443;46;20443;-67
2023/10/17 01:02:46;;;;;;;13.17;7.77;;;12.10;90.20;;;13.78;62.14;102098.16;3081985;46;20445;-66
2023/10/17 01:05:16;;;;;;;9.70;7.27;;;12.10;90.20;;;13.75;62.08;102104.63;3081087;46;21042;-68
2023/10/17 01:07:45;;;;;;;9.77;7.57;;;12.00;90.40;;;13.80;62.69;102106.78;3082283;46;21012;-68
2023/10/17 01:10:13;;;;;;;8.73;6.60;;;12.00;90.60;;;13.82;62.64;102110.09;3080783;46;20467;-67
2023/10/17 01:12:53;;;;;;;10.23;7.20;;;12.10;90.60;;;13.83;62.49;102096.72;3081749;46;20439;-67
2023/10/17 01:15:28;;;;;;;12.60;6.90;;;12.10;90.60;;;13.81;62.43;102097.84;3082070;46;20431;-67
2023/10/17 01:18:06;;;;;;;11.23;7.37;;;12.10;90.60;;;13.80;62.21;102104.13;3082002;46;20475;-67
2023/10/17 01:20:35;;;;;;;10.27;6.93;;;12.00;90.60;;;13.79;62.18;102097.16;3081067;46;21047;-67
2023/10/17 01:23:04;;;;;;;8.47;7.00;;;12.00;90.80;;;13.78;62.97;102103.47;3081896;46;20479;-67
2023/10/17 01:25:40;;;;;;;8.63;6.07;;;12.00;91.20;;;13.78;62.80;102100.81;3081298;46;21017;-67
2023/10/17 01:28:10;;;;;;;9.40;6.57;;;12.00;90.80;;;13.79;63.37;102100.66;3087406;46;20455;-69
2023/10/17 01:30:41;;;;;;;8.40;6.60;;;12.00;91.00;;;13.80;63.01;102106.78;3084550;46;20443;-68
2023/10/17 01:33:09;;;;;;;8.47;5.73;;;12.00;91.40;;;13.82;63.53;102102.16;3081773;46;20435;-68
2023/10/17 01:35:40;;;;;;;10.40;6.07;;;12.00;91.20;;;13.88;63.62;102096.22;3082056;46;20456;-67
2023/10/17 01:38:09;;;;;;;8.03;5.97;;;12.10;91.20;;;13.94;63.16;102098.19;3081373;46;21027;-69
2023/10/17 01:40:37;;;;;;;8.37;6.00;;;12.10;91.10;;;14.01;63.16;102099.19;3080730;46;20475;-68
2023/10/17 01:43:05;;;;;;;7.80;6.13;;;12.20;91.10;;;14.06;63.14;102096.91;3081348;46;20427;-69
2023/10/17 01:45:37;;;;;;;7.70;6.63;;;12.20;90.90;;;14.07;62.66;102094.06;3081795;46;20432;-67
2023/10/17 01:48:06;;;;;;;9.00;6.23;;;12.30;90.90;;;14.10;62.88;102095.56;3081369;46;20427;-68
2023/10/17 01:50:34;;;;;;;11.10;6.40;;;12.30;90.90;;;14.13;63.06;102097.91;3080861;46;20483;-67
2023/10/17 01:53:10;;;;;;;7.47;6.30;;;12.30;90.90;;;14.18;62.56;102090.28;3081019;46;20473;-67
2023/10/17 01:55:39;;;;;;;8.13;6.53;;;12.40;90.90;;;14.22;62.66;102081.03;3081452;46;20485;-68
2023/10/17 01:58:08;;;;;;;8.37;6.87;;;12.40;90.70;;;14.26;62.66;102088.47;3081779;46;20457;-67
2023/10/17 02:00:37;;;;;;;8.73;6.67;;;12.50;91.00;;;14.26;62.29;102085.81;3080457;46;20519;-68
2023/10/17 02:03:06;;;;;;;8.20;6.77;;;12.50;90.60;;;14.27;62.48;102092.78;3081281;46;20491;-66
2023/10/17 02:05:35;;;;;;;10.30;6.53;;;12.50;90.60;;;14.32;62.57;102096.78;3081519;46;20427;-69
2023/10/17 02:08:08;;;;;;;8.83;6.63;;;12.60;90.60;;;14.35;62.15;102091.16;3081257;46;21054;-67
2023/10/17 02:10:36;;;;;;;8.07;6.37;;;12.60;90.50;;;14.38;61.84;102081.03;3080603;46;20439;-69
2023/10/17 02:13:06;;;;;;;7.03;6.33;;;12.60;90.40;;;14.42;62.05;102082.38;3081072;46;21251;-67
2023/10/17 02:15:37;;;;;;;7.30;5.50;;;12.70;90.50;;;14.45;61.86;102081.22;3081205;46;20431;-67
2023/10/17 02:18:12;;;;;;;8.53;6.80;;;12.70;90.30;;;14.47;61.60;102080.06;3081162;46;20428;-67
2023/10/17 02:20:53;;;;;;;9.13;7.20;;;12.70;90.20;;;14.46;61.81;102077.56;3080134;46;20451;-68
2023/10/17 02:23:25;;;;;;;9.23;6.67;;;12.70;90.20;;;14.45;61.79;102081.22;3080261;46;20427;-67
2023/10/17 02:25:54;;;;;;;10.07;7.50;;;12.70;90.10;;;14.44;61.35;102080.41;3080981;46;20456;-68
2023/10/17 02:28:24;;;;;;;12.17;6.63;;;12.70;90.00;;;14.43;61.49;102086.66;3080824;46;20448;-69
2023/10/17 02:30:52;;;;;;;13.43;7.00;;;12.80;90.10;;;14.45;61.71;102081.22;3080643;46;20463;-68
2023/10/17 02:33:21;;;;;;;7.77;5.93;;;12.70;90.10;;;14.48;61.36;102087.00;3081342;46;20435;-67
2023/10/17 02:36:26;;;;;;;8.23;6.80;;;12.70;89.90;;;14.50;61.10;102095.63;3081089;46;21042;-68
2023/10/17 02:38:46;;;;;;;11.00;6.00;;;12.80;89.90;;;14.52;60.98;102093.66;3080958;46;20479;-67
2023/10/17 02:41:28;;;;;;;10.03;5.30;;;12.80;89.30;;;14.54;60.83;102096.97;3081320;46;20551;-69
2023/10/17 02:43:57;;;;;;;7.90;6.10;;;12.80;90.00;;;14.56;60.60;102089.66;3080928;46;20428;-72
2023/10/17 02:46:26;;;;;;;9.80;6.10;;;12.80;88.90;;;14.59;60.17;102099.94;3080496;46;20459;-69
2023/10/17 02:48:56;;;;;;;8.13;6.30;;;12.90;88.70;;;14.62;60.54;102098.78;3080470;46;20452;-67
2023/10/17 02:53:56;;;;;;;9.23;6.00;;;12.90;88.90;;;14.62;60.21;102099.56;3081035;46;20523;-67
2023/10/17 02:56:26;;;;;;;10.30;6.27;;;12.90;88.90;;;14.59;60.44;102105.25;3080582;46;20431;-67
2023/10/17 02:59:12;;;;;;;9.27;7.10;;;12.90;88.80;;;14.55;60.16;102092.47;3080305;46;21143;-68
2023/10/17 03:01:44;;;;;;;7.60;6.73;;;12.90;88.40;;;14.48;60.17;102094.94;3080742;46;20558;-68
2023/10/17 03:04:13;;;;;;;8.80;6.73;;;12.80;88.10;;;14.41;60.03;102096.63;3080396;46;20441;-67
2023/10/17 03:06:44;;;;;;;8.27;6.23;;;12.70;88.00;;;14.37;60.16;102091.81;3080216;46;20443;-67
2023/10/17 03:12:07;;;;;;;7.73;5.83;;;12.70;89.00;;;14.33;60.53;102093.16;3079525;46;20435;-69
2023/10/17 03:17:08;;;;;;;8.20;6.53;;;12.60;89.30;;;14.28;61.16;102090.97;3080372;46;20508;-68
2023/10/17 03:19:38;;;;;;;9.60;6.30;;;12.60;89.50;;;14.25;60.68;102094.78;3080309;46;20478;-69
2023/10/17 03:22:19;;;;;;;9.60;5.93;;;12.50;89.20;;;14.24;60.96;102100.22;3080455;46;21373;-68
2023/10/17 03:24:59;;;;;;;7.03;5.57;;;12.50;89.60;;;14.20;60.98;102094.44;3078412;46;20466;-68
2023/10/17 03:27:36;;;;;;;8.53;5.10;;;12.50;89.90;;;14.19;60.99;102091.97;3078898;46;20436;-68
2023/10/17 03:30:11;;;;;;;8.23;5.50;;;12.50;89.80;;;14.16;60.84;102094.94;3080309;46;20470;-67
2023/10/17 03:32:52;;;;;;;7.50;5.40;;;12.40;89.50;;;14.13;61.32;102092.59;3079421;46;20523;-68
2023/10/17 03:35:29;;;;;;;8.27;6.20;;;12.40;89.50;;;14.09;61.21;102099.22;3081863;46;21079;-68
2023/10/17 03:38:16;;;;;;;7.77;6.30;;;12.40;89.50;;;14.05;61.23;102095.22;3080326;43;20479;-67
2023/10/17 03:40:53;;;;;;;6.40;5.70;;;12.30;89.60;;;14.01;61.32;102100.03;3081091;46;20587;-68
2023/10/17 03:43:22;;;;;;;8.90;6.40;;;12.30;89.90;;;14.01;61.76;102096.56;3081633;46;20538;-68
2023/10/17 03:45:56;;;;;;;8.73;6.00;;;12.30;90.10;;;14.02;61.32;102098.22;3081909;46;20511;-69
2023/10/17 03:48:29;;;;;;;8.73;5.90;;;12.20;90.00;;;14.00;61.74;102094.91;3081545;46;20428;-67
2023/10/17 03:50:59;;;;;;;7.17;5.70;;;12.20;90.00;;;14.00;61.67;102093.06;3082585;46;20446;-68
2023/10/17 03:53:32;;;;;;;8.73;5.90;;;12.20;90.10;;;14.02;61.70;102095.56;3082054;46;20439;-68
2023/10/17 03:56:00;;;;;;;8.50;6.07;;;12.20;90.30;;;14.03;62.03;102098.06;3082232;46;21021;-67
2023/10/17 04:01:10;;;;;;;8.13;5.77;;;12.20;90.40;;;14.01;62.21;102104.50;3082385;46;20568;-67
2023/10/17 04:03:38;;;;;;;8.43;6.60;;;12.20;90.50;;;14.01;62.83;102100.03;3082269;46;20499;-68
2023/10/17 04:11:25;;;;;;;7.67;6.87;;;12.20;90.70;;;14.01;62.65;102104.50;3081900;46;20431;-68
2023/10/17 04:14:00;;;;;;;9.30;6.83;;;12.20;90.70;;;13.97;62.31;102092.59;3082254;46;20498;-67
2023/10/17 04:16:38;;;;;;;6.90;6.23;;;12.20;90.80;;;13.96;62.95;102096.22;3080704;46;20511;-67
2023/10/17 04:19:20;;;;;;;10.77;5.80;;;12.20;90.80;;;13.95;63.01;102105.16;3081787;46;21055;-68
2023/10/17 04:22:15;;;;;;;8.03;5.97;;;12.20;91.00;;;13.97;63.15;102097.88;3082139;46;20478;-67
2023/10/17 04:24:49;;;;;;;8.57;6.10;;;12.20;91.00;;;13.99;63.07;102107.31;3082011;46;20460;-66
2023/10/17 04:29:59;;;;;;;7.63;6.20;;;12.30;91.20;;;14.01;63.00;102099.19;3081833;46;20518;-68
2023/10/17 04:32:29;;;;;;;8.03;7.10;;;12.30;90.90;;;13.95;62.71;102094.56;3081581;46;20433;-69
2023/10/17 04:34:57;;;;;;;7.63;6.83;;;12.30;90.80;;;13.88;63.14;102093.56;3082199;46;21081;-67
2023/10/17 04:37:32;;;;;;;7.73;6.73;;;12.30;90.70;;;13.85;63.30;102099.19;3082446;46;20428;-67
2023/10/17 04:41:13;;;;;;;6.77;6.13;;;12.20;91.00;;;13.86;63.50;102098.19;3081715;46;21121;-67
2023/10/17 04:43:41;;;;;;;7.57;6.13;;;12.20;91.10;;;13.88;63.68;102104.97;3081811;46;20447;-68
2023/10/17 04:45:55;;;;;;;10.73;6.80;;;12.20;91.20;;;13.93;63.78;102104.50;3081294;46;20529;-68
2023/10/17 04:48:33;;;;;;;10.27;7.13;;;12.20;91.30;;;13.98;63.77;102110.09;3081869;46;20460;-67
2023/10/17 04:51:19;;;;;;;11.10;7.63;;;12.20;91.30;;;14.01;63.58;102104.50;3081897;46;20448;-67
2023/10/17 04:53:48;;;;;;;8.97;6.70;;;12.30;91.20;;;14.00;63.56;102102.84;3081211;46;20519;-69
2023/10/17 04:56:22;;;;;;;8.70;6.97;;;12.30;91.00;;;13.99;62.96;102098.53;3081468;46;20459;-67
2023/10/17 04:58:56;;;;;;;7.60;6.83;;;12.30;91.00;;;13.97;63.40;102098.72;3081162;46;20435;-67
2023/10/17 05:01:35;;;;;;;7.40;6.27;;;12.30;91.00;;;14.00;63.35;102102.84;3081570;46;20557;-69
2023/10/17 05:04:20;;;;;;;7.17;6.47;;;12.30;91.20;;;14.01;63.31;102101.84;3082999;46;20521;-68
2023/10/17 06:19:08;;;;;;;14.23;7.43;;;12.30;91.40;;;14.05;63.52;102132.28;3080886;46;20431;-67
2023/10/17 06:21:39;;;;;;;13.67;7.60;;;12.30;91.40;;;14.08;63.62;102142.56;3081088;46;20427;-67
2023/10/17 06:24:45;;;;;;;11.33;8.93;;;12.40;91.30;;;14.11;63.81;102134.31;3080480;46;20536;-68
2023/10/17 06:32:17;;;;;;;12.03;7.03;;;12.40;91.10;;;14.12;63.25;102141.28;3080729;46;20570;-67
2023/10/17 06:34:47;;;;;;;11.07;7.17;;;12.40;91.10;;;14.14;63.57;102139.28;3080987;46;20509;-68
2023/10/17 06:37:28;;;;;;;9.73;6.17;;;12.40;91.10;;;14.19;63.52;102140.44;3080716;43;21065;-67
2023/10/17 06:39:58;;;;;;;10.93;9.03;;;12.50;91.20;;;14.23;63.12;102143.59;3080622;46;21085;-68
2023/10/17 06:42:29;;;;;;;10.50;8.50;;;12.50;91.10;;;14.25;62.97;102149.56;3080593;46;20447;-65
2023/10/17 06:45:07;;;;;;;10.73;8.30;;;12.50;91.00;;;14.31;62.95;102153.41;3081195;46;20455;-68
2023/10/17 06:47:47;;;;;;;11.70;7.73;;;12.60;91.10;;;14.40;62.87;102153.25;3080801;46;20439;-68
2023/10/17 06:50:17;;;;;;;8.07;6.40;;;12.60;91.00;;;14.49;62.80;102156.72;3080082;46;21157;-69
2023/10/17 06:55:59;;;;;;;10.80;6.53;;;12.70;90.40;;;14.53;61.81;102158.88;3080173;46;20439;-68
2023/10/17 06:58:21;;;;;;;7.27;5.20;;;12.80;90.10;;;14.56;61.49;102152.41;3079829;46;20427;-68
2023/10/17 07:00:51;;;;;;;6.63;5.47;;;12.80;90.00;;;14.56;60.95;102158.56;3080314;46;20436;-67
2023/10/17 07:03:25;;;;;;;8.07;5.20;;;12.80;89.70;;;14.53;60.58;102158.88;3080256;46;20451;-68
2023/10/17 07:06:11;;;;;;;7.67;5.50;;;12.80;89.30;;;14.49;60.88;102156.72;3080773;46;21094;-67
2023/10/17 07:08:41;;;;;;;7.93;4.87;;;12.80;89.20;;;14.44;59.76;102153.75;3081403;46;20438;-67
2023/10/17 07:11:10;;;;;;;7.13;5.90;;;12.70;87.80;;;14.37;59.51;102156.22;3082386;46;20531;-67
2023/10/17 07:19:46;;;;;;;8.90;6.10;;;12.60;88.00;;;14.24;60.45;102153.19;3081646;46;20443;-68
2023/10/17 07:24:43;;;;;;;5.10;4.60;;;12.60;88.20;;;14.27;59.44;102151.03;3081941;46;20983;-67
2023/10/17 07:27:33;;;;;;;7.80;4.93;;;12.60;87.70;;;14.31;59.79;102158.72;3081633;46;21142;-68
2023/10/17 07:30:06;;;;;;;6.70;4.63;;;12.60;88.00;;;14.38;60.18;102149.91;3080528;43;20443;-68
2023/10/17 07:32:45;;;;;;;15.93;14.27;;;12.60;88.40;;;14.47;60.10;102151.59;3082222;46;21060;-67
2023/10/17 07:35:16;;;;;;;23.47;19.33;;;12.60;88.20;;;14.53;59.20;102147.44;3081197;46;20427;-69
2023/10/17 07:37:56;;;;;;;12.40;9.50;;;12.70;87.50;;;14.57;59.43;102154.91;3082552;46;20552;-67
2023/10/17 07:41:36;;;;;;;6.10;4.60;;;12.70;87.40;;;14.62;58.44;102154.44;3081815;46;20709;-67
2023/10/17 07:43:21;;;;;;;4.73;3.77;;;12.80;87.50;;;14.61;57.54;102156.25;3082746;46;21070;-68
2023/10/17 07:46:00;;;;;;;5.40;4.77;;;12.80;85.00;;;14.59;57.19;102157.41;3083075;46;20505;-67
2023/10/17 07:48:28;;;;;;;24.43;14.77;;;12.80;84.90;;;14.59;57.53;102150.28;3082230;46;20427;-67
2023/10/17 07:50:59;;;;;;;26.83;14.10;;;12.80;85.40;;;14.67;57.71;102152.91;3081145;46;20446;-67
2023/10/17 07:53:32;;;;;;;8.27;4.60;;;12.90;85.60;;;14.71;57.32;102156.88;3082644;46;20564;-67
2023/10/17 07:56:12;;;;;;;6.27;3.77;;;12.90;84.80;;;14.72;56.64;102155.06;3080873;46;20554;-67
2023/10/17 07:58:45;;;;;;;5.27;4.33;;;12.90;84.10;;;14.68;56.57;102151.94;3081966;46;21129;-67
2023/10/17 08:01:16;;;;;;;7.97;4.40;;;12.90;84.00;;;14.65;56.32;102152.25;3081964;46;20434;-67
2023/10/17 08:03:54;;;;;;;11.10;4.20;;;12.90;83.80;;;14.64;55.93;102152.44;3080899;46;20459;-68
2023/10/17 08:06:29;;;;;;;10.77;4.20;;;12.90;82.90;;;14.66;56.25;102148.63;3081632;46;20451;-67
2023/10/17 08:08:59;;;;;;;12.67;7.57;;;12.90;84.30;;;14.73;55.57;102149.63;3080606;46;20536;-68
2023/10/17 08:11:27;;;;;;;23.90;18.17;;;12.90;83.30;;;14.84;56.21;102146.63;3081859;46;20447;-68
2023/10/17 08:14:09;;;;;;;11.50;8.67;;;12.90;83.90;;;14.95;56.07;102148.09;3081711;46;20558;-67
2023/10/17 08:16:40;;;;;;;5.60;4.30;;;13.00;83.50;;;15.08;55.25;102152.88;3082328;46;20431;-68
2023/10/17 08:19:13;;;;;;;7.07;4.13;;;13.10;82.90;;;15.19;55.23;102144.56;3079940;46;20573;-69
2023/10/17 08:24:40;;;;;;;6.43;3.27;;;13.20;80.40;;;15.28;53.24;102154.16;3080406;46;20471;-68
2023/10/17 08:27:19;;;;;;;5.53;3.03;;;13.30;80.10;;;15.24;52.70;102147.50;3080719;46;20498;-67
2023/10/17 08:30:00;;;;;;;3.90;2.70;;;13.30;79.30;;;15.22;52.56;102152.16;3080136;46;20503;-67
2023/10/17 08:32:39;;;;;;;5.47;3.07;;;13.30;78.70;;;15.18;52.62;102153.50;3079886;46;20431;-68
2023/10/17 08:35:20;;;;;;;3.67;2.90;;;13.40;78.10;;;15.09;51.96;102155.38;3082020;46;20435;-68
2023/10/17 08:37:52;;;;;;;3.83;2.33;;;13.40;77.60;;;15.05;51.90;102155.88;3082134;46;20431;-67
2023/10/17 08:40:40;;;;;;;3.10;2.80;;;13.30;76.70;;;15.06;51.69;102154.88;3081732;46;20439;-69
2023/10/17 08:43:14;;;;;;;4.77;2.63;;;13.30;76.90;;;15.13;51.08;102156.69;3081947;46;20446;-69
2023/10/17 08:45:47;;;;;;;3.87;2.33;;;13.30;75.80;;;15.25;51.30;102159.78;3082355;46;20431;-70
2023/10/17 08:48:16;;;;;;;4.47;2.60;;;13.40;76.40;;;15.25;49.82;102149.19;3081311;46;20443;-68
2023/10/17 08:50:44;;;;;;;4.07;3.20;;;13.40;73.70;;;15.28;49.46;102160.28;3081760;46;21055;-69
2023/10/17 08:53:23;;;;;;;3.07;2.77;;;13.40;74.80;;;15.34;49.95;102150.81;3081993;46;20435;-68
2023/10/17 08:55:52;;;;;;;4.90;2.20;;;13.50;74.50;;;15.41;49.48;102149.13;3080925;46;20533;-69
2023/10/17 08:58:33;;;;;;;4.53;2.50;;;13.50;73.70;;;15.47;49.39;102153.78;3081799;46;20497;-69
2023/10/17 09:01:10;;;;;;;2.17;1.93;;;13.60;74.20;;;15.52;49.17;102148.81;3081246;43;20494;-69
2023/10/17 09:03:46;;;;;;;4.30;2.47;;;13.70;73.20;;;15.59;48.64;102152.44;3081766;46;21038;-69
2023/10/17 09:11:33;;;;;;;2.83;1.67;;;13.80;71.00;;;15.45;47.49;102140.69;3080788;46;20561;-67
2023/10/17 09:14:24;;;;;;;3.53;1.60;;;13.80;70.00;;;15.46;48.33;102146.81;3081832;46;20507;-68
2023/10/17 09:17:11;;;;;;;2.67;1.70;;;13.80;71.00;;;15.51;48.06;102139.19;3081302;46;20520;-67
2023/10/17 09:19:46;;;;;;;4.70;1.80;;;13.80;70.90;;;15.57;48.24;102139.31;3081541;43;20523;-68
2023/10/17 09:22:17;;;;;;;2.60;1.60;;;13.90;70.80;;;15.66;48.11;102140.13;3081310;46;20533;-68
2023/10/17 09:24:49;;;;;;;7.13;2.00;;;13.90;71.20;;;15.69;47.20;102137.09;3081562;46;20439;-70
2023/10/17 09:27:19;;;;;;;3.13;1.73;;;14.00;69.50;;;15.74;47.20;102140.06;3081927;46;20613;-68
2023/10/17 09:29:59;;;;;;;4.33;2.00;;;14.00;69.70;;;15.81;47.52;102135.69;3080797;46;20539;-69
2023/10/17 09:32:35;;;;;;;3.37;2.30;;;14.00;69.90;;;15.87;46.54;102132.38;3080747;46;20577;-68
2023/10/17 09:35:18;;;;;;;2.90;1.80;;;14.10;68.70;;;15.98;46.44;102131.13;3081507;46;20600;-69
2023/10/17 09:37:52;;;;;;;2.17;1.50;;;14.10;68.50;;;16.04;45.54;102131.28;3080379;46;20433;-68
2023/10/17 09:40:29;;;;;;;3.30;1.80;;;14.20;67.50;;;16.07;45.42;102128.25;3081033;46;20460;-68
2023/10/17 09:42:59;;;;;;;10.47;8.33;;;14.30;66.70;;;16.14;45.46;102131.84;3080777;46;20448;-68
2023/10/17 09:45:33;;;;;;;4.07;2.20;;;14.30;66.70;;;16.27;45.55;102131.28;3081578;46;20507;-68
2023/10/17 09:48:05;;;;;;;2.10;1.57;;;14.40;66.50;;;16.42;44.64;102128.66;3080009;46;20431;-68
2023/10/17 09:50:37;;;;;;;3.07;1.60;;;14.40;65.90;;;16.51;43.41;102132.91;3080936;46;20491;-68
2023/10/17 09:53:19;;;;;;;3.43;2.00;;;14.50;64.30;;;16.57;43.57;102132.25;3080377;43;20539;-69
2023/10/17 09:55:51;;;;;;;3.53;1.70;;;14.60;64.40;;;16.73;44.24;102137.41;3079831;46;20521;-69
2023/10/17 09:58:28;;;;;;;7.20;3.60;;;14.70;65.70;;;16.90;44.22;102128.28;3078629;46;20495;-69
2023/10/17 10:01:32;;;;;;;2.60;1.20;;;14.80;66.10;;;17.08;43.44;102130.56;3078498;46;20467;-69
2023/10/17 10:04:02;;;;;;;3.53;2.50;;;14.90;64.50;;;17.27;43.55;102130.84;3079075;46;20507;-68
2023/10/17 10:06:33;;;;;;;6.83;4.50;;;14.90;65.00;;;17.38;42.62;102134.88;3079509;46;20496;-68
2023/10/17 10:09:05;;;;;;;4.47;2.70;;;15.10;64.60;;;17.49;42.91;102129.94;3079467;46;20475;-69
2023/10/17 10:11:49;;;;;;;3.83;1.73;;;15.20;64.80;;;17.55;42.08;102129.22;3080597;46;20452;-70
2023/10/17 10:14:26;;;;;;;2.07;1.10;;;15.30;62.90;;;17.57;41.59;102124.53;3081103;46;20502;-68
2023/10/17 10:16:59;;;;;;;3.80;2.30;;;15.40;61.80;;;17.64;42.27;102131.78;3081469;46;20440;-69
2023/10/17 10:19:43;;;;;;;12.37;8.37;;;15.50;62.90;;;17.70;42.27;102126.53;3081178;43;20530;-68
2023/10/17 10:22:16;;;;;;;5.13;1.50;;;15.60;62.30;;;17.76;41.88;102115.13;3081339;46;20523;-68
2023/10/17 10:24:46;;;;;;;4.67;1.40;;;15.60;62.40;;;17.67;40.71;102126.88;3080700;46;20443;-69
2023/10/17 10:27:26;;;;;;;8.73;2.70;;;15.70;59.60;;;17.53;41.51;102131.25;3081064;46;20462;-68
2023/10/17 10:30:36;;;;;;;6.67;1.70;;;15.70;60.40;;;17.32;41.41;102115.16;3080350;46;20511;-69
2023/10/17 10:33:05;;;;;;;2.13;1.50;;;15.70;59.80;;;17.27;41.54;102122.03;3080418;46;20588;-69
2023/10/17 10:35:36;;;;;;;3.83;1.80;;;15.60;60.20;;;17.17;41.42;102106.34;3079310;46;20978;-68
2023/10/17 10:38:04;;;;;;;1.50;1.00;;;15.50;59.50;;;17.13;41.82;102114.88;3080983;46;20455;-69
2023/10/17 10:40:39;;;;;;;1.57;1.30;;;15.50;59.70;;;17.09;42.08;102111.75;3080302;46;20510;-68
2023/10/17 10:43:11;;;;;;;5.50;1.10;;;15.40;60.10;;;17.09;42.01;102109.09;3081077;46;20443;-68
2023/10/17 10:45:47;;;;;;;4.93;1.97;;;15.40;59.70;;;17.09;42.00;102097.66;3082924;46;20481;-69
2023/10/17 10:48:18;;;;;;;4.10;2.80;;;15.40;60.60;;;17.07;42.00;102097.81;3082802;46;20497;-69
2023/10/17 10:50:55;;;;;;;3.83;1.20;;;15.40;60.20;;;16.99;41.42;102095.25;3081319;46;20442;-68
2023/10/17 10:53:36;;;;;;;2.50;1.20;;;15.30;59.90;;;16.96;42.01;102095.63;3082775;46;20451;-68
2023/10/17 10:56:11;;;;;;;2.27;1.17;;;15.30;59.90;;;16.91;42.04;102100.66;3080108;46;20459;-69
2023/10/17 10:58:57;;;;;;;2.87;1.50;;;15.30;60.00;;;16.86;42.22;102092.38;3081905;46;20435;-69
2023/10/17 11:01:27;;;;;;;4.37;1.67;;;15.30;60.40;;;16.95;42.46;102104.59;3082659;46;21017;-68
2023/10/17 11:03:58;;;;;;;4.70;1.30;;;15.30;60.90;;;17.09;42.38;102098.44;3083056;46;20463;-68
2023/10/17 11:06:27;;;;;;;2.23;1.17;;;15.20;60.70;;;17.12;42.09;102095.44;3081281;43;20572;-68
2023/10/17 11:08:56;;;;;;;4.17;3.10;;;15.30;61.00;;;17.14;42.19;102096.06;3081477;46;20431;-69
2023/10/17 11:11:25;;;;;;;13.30;5.57;;;15.20;61.10;;;17.09;41.88;102090.47;3079787;46;20480;-69
2023/10/17 11:13:54;;;;;;;2.17;1.10;;;15.30;60.60;;;17.04;41.96;102087.56;3080035;46;20451;-69
2023/10/17 11:16:26;;;;;;;3.13;2.03;;;15.30;60.10;;;16.99;42.16;102092.59;3080922;46;20466;-69
2023/10/17 11:18:55;;;;;;;3.87;1.80;;;15.20;60.30;;;16.96;42.17;102092.97;3061207;46;20505;-69
2023/10/17 11:21:24;;;;;;;3.50;1.70;;;15.20;60.40;;;17.00;42.00;102093.44;3065518;46;20446;-67
2023/10/17 11:24:04;;;;;;;2.40;1.10;;;15.20;60.20;;;16.95;42.01;102091.28;3079105;46;21079;-69
2023/10/17 11:26:39;;;;;;;3.83;2.37;;;15.30;60.00;;;16.96;41.96;102090.28;3077478;46;20427;-69
2023/10/17 11:29:08;;;;;;;4.03;2.10;;;15.20;60.10;;;16.95;42.44;102087.84;3064620;46;21578;-70
2023/10/17 11:31:41;;;;;;;1.77;0.90;;;15.30;60.50;;;16.90;41.66;102083.88;3072899;46;20454;-69
2023/10/17 11:34:16;;;;;;;4.33;1.67;;;15.30;59.40;;;16.89;42.30;102076.06;3071140;46;20447;-69
2023/10/17 11:36:56;;;;;;;2.40;1.07;;;15.30;60.00;;;16.88;41.96;102077.06;3077971;46;20442;-70
2023/10/17 11:39:26;;;;;;;2.07;1.20;;;15.30;59.30;;;16.91;41.62;102071.41;3065875;43;21344;-69
2023/10/17 11:41:55;;;;;;;4.07;2.20;;;15.30;59.30;;;16.93;42.18;102069.38;3076013;46;20467;-69
2023/10/17 11:44:27;;;;;;;4.33;3.27;;;15.30;60.00;;;16.94;42.11;102068.38;3063133;46;21373;-68
2023/10/17 11:47:02;;;;;;;9.07;5.80;;;15.30;59.80;;;16.99;42.32;102068.66;3078311;46;21398;-70
2023/10/17 11:49:41;;;;;;;1.97;1.57;;;15.30;60.20;;;17.05;42.16;102073.22;3072761;46;20438;-69
2023/10/17 11:52:13;;;;;;;4.03;1.63;;;15.30;60.10;;;17.14;42.16;102076.63;3059366;43;20419;-69
2023/10/17 11:55:11;;;;;;;5.57;4.00;;;15.30;60.40;;;17.10;42.05;102068.19;3073632;46;21058;-70
2023/10/17 11:57:45;;;;;;;59.53;34.63;;;15.40;60.10;;;17.11;42.23;102058.38;3077210;46;20431;-70
2023/10/17 12:02:48;;;;;;;8.83;4.57;;;15.30;60.40;;;16.93;42.68;102053.41;3076796;46;20442;-68
2023/10/17 12:05:19;;;;;;;4.97;2.40;;;15.30;60.50;;;16.81;42.74;102044.25;3077665;46;20433;-70
2023/10/17 12:07:54;;;;;;;2.13;1.13;;;15.20;60.70;;;16.70;42.58;102047.34;3065061;46;20663;-69
2023/10/17 12:10:26;;;;;;;2.20;1.10;;;15.20;60.20;;;16.58;42.93;102038.19;3076420;43;20588;-69
2023/10/17 12:13:05;;;;;;;1.63;0.90;;;15.10;60.40;;;16.47;42.60;102041.25;3068940;46;21384;-69
2023/10/17 12:15:34;;;;;;;2.53;1.10;;;15.00;60.20;;;16.41;42.92;102039.31;3061262;46;20520;-68
2023/10/17 12:18:02;;;;;;;4.17;1.20;;;14.90;60.70;;;16.42;43.49;102047.13;3073923;46;20450;-69
2023/10/17 12:20:31;;;;;;;3.53;1.30;;;14.80;61.30;;;16.49;43.57;102040.06;3076014;43;20447;-69
2023/10/17 12:23:00;;;;;;;5.80;4.77;;;14.80;61.70;;;16.64;43.53;102034.81;3068648;46;20447;-68
2023/10/17 12:25:32;;;;;;;2.27;2.07;;;14.80;62.10;;;16.83;43.28;102039.56;3075290;46;20443;-69
2023/10/17 12:28:02;;;;;;;2.87;1.87;;;14.90;62.30;;;16.96;43.11;102026.47;3078464;46;21073;-69
2023/10/17 12:30:35;;;;;;;2.17;1.23;;;15.00;62.50;;;17.06;42.98;102029.66;3071421;46;20653;-69
2023/10/17 12:33:05;;;;;;;3.03;1.13;;;15.10;62.00;;;17.12;42.88;102020.94;3071992;46;20424;-69
2023/10/17 12:35:34;;;;;;;2.50;0.90;;;15.20;61.90;;;17.15;42.98;102022.41;3076242;43;20427;-70
2023/10/17 12:38:14;;;;;;;3.83;1.20;;;15.20;61.70;;;17.41;41.60;102028.88;3076560;46;22370;-68